sensor_id;sensor_type;location;lat;lon;timestamp;P1;durP1;ratioP1;P2;durP2;ratioP2
12687;SDS011;6408;59.388;17.798;2023-08-06T00:00:10;5.70;;;2.60;;
12687;SDS011;6408;59.388;17.798;2023-08-06T00:02:37;4.30;;;2.53;;
12687;SDS011;6408;59.388;17.798;2023-08-06T00:05:04;3.97;;;2.97;;
12687;SDS011;6408;59.388;17.798;2023-08-06T00:07:33;5.00;;;2.70;;
12687;SDS011;6408;59.388;17.798;2023-08-06T00:10:00;3.72;;;2.45;;
12687;SDS011;6408;59.388;17.798;2023-08-06T00:12:27;6.53;;;2.50;;
12687;SDS011;6408;59.388;17.798;2023-08-06T00:14:54;5.43;;;2.85;;
12687;SDS011;6408;59.388;17.798;2023-08-06T00:17:22;5.60;;;2.25;;
12687;SDS011;6408;59.388;17.798;2023-08-06T00:19:49;4.32;;;2.38;;
12687;SDS011;6408;59.388;17.798;2023-08-06T00:22:16;5.25;;;2.92;;
12687;SDS011;6408;59.388;17.798;2023-08-06T00:24:45;3.72;;;2.30;;
12687;SDS011;6408;59.388;17.798;2023-08-06T00:27:12;3.25;;;2.55;;
12687;SDS011;6408;59.388;17.798;2023-08-06T00:29:39;4.72;;;2.83;;
12687;SDS011;6408;59.388;17.798;2023-08-06T00:32:06;5.68;;;2.58;;
12687;SDS011;6408;59.388;17.798;2023-08-06T00:34:33;4.45;;;2.75;;
12687;SDS011;6408;59.388;17.798;2023-08-06T00:37:00;2.83;;;2.42;;
12687;SDS011;6408;59.388;17.798;2023-08-06T00:39:27;3.65;;;2.38;;
12687;SDS011;6408;59.388;17.798;2023-08-06T00:41:56;4.55;;;3.08;;
12687;SDS011;6408;59.388;17.798;2023-08-06T00:44:23;4.57;;;2.47;;
12687;SDS011;6408;59.388;17.798;2023-08-06T00:46:50;3.53;;;2.50;;
12687;SDS011;6408;59.388;17.798;2023-08-06T00:49:17;5.25;;;2.83;;
12687;SDS011;6408;59.388;17.798;2023-08-06T00:51:45;5.43;;;2.50;;
12687;SDS011;6408;59.388;17.798;2023-08-06T00:54:13;5.78;;;3.10;;
12687;SDS011;6408;59.388;17.798;2023-08-06T00:56:41;11.02;;;3.20;;
12687;SDS011;6408;59.388;17.798;2023-08-06T00:59:11;3.78;;;2.67;;
12687;SDS011;6408;59.388;17.798;2023-08-06T01:01:38;3.67;;;2.95;;
12687;SDS011;6408;59.388;17.798;2023-08-06T01:04:05;3.70;;;2.40;;
12687;SDS011;6408;59.388;17.798;2023-08-06T01:06:35;3.47;;;2.30;;
12687;SDS011;6408;59.388;17.798;2023-08-06T01:09:13;4.55;;;2.50;;
12687;SDS011;6408;59.388;17.798;2023-08-06T01:11:54;4.93;;;2.58;;
12687;SDS011;6408;59.388;17.798;2023-08-06T01:14:30;3.55;;;2.60;;
12687;SDS011;6408;59.388;17.798;2023-08-06T01:17:04;4.32;;;2.83;;
12687;SDS011;6408;59.388;17.798;2023-08-06T01:19:31;4.57;;;2.40;;
12687;SDS011;6408;59.388;17.798;2023-08-06T01:22:00;4.57;;;2.70;;
12687;SDS011;6408;59.388;17.798;2023-08-06T01:24:27;4.65;;;2.53;;
12687;SDS011;6408;59.388;17.798;2023-08-06T01:26:55;6.40;;;2.47;;
12687;SDS011;6408;59.388;17.798;2023-08-06T01:29:28;4.18;;;2.95;;
12687;SDS011;6408;59.388;17.798;2023-08-06T01:32:00;3.75;;;2.90;;
12687;SDS011;6408;59.388;17.798;2023-08-06T01:34:30;4.95;;;2.92;;
12687;SDS011;6408;59.388;17.798;2023-08-06T01:37:01;6.28;;;2.90;;
12687;SDS011;6408;59.388;17.798;2023-08-06T01:39:29;5.10;;;2.92;;
12687;SDS011;6408;59.388;17.798;2023-08-06T01:41:59;3.63;;;2.65;;
12687;SDS011;6408;59.388;17.798;2023-08-06T01:44:28;4.53;;;2.95;;
12687;SDS011;6408;59.388;17.798;2023-08-06T01:46:56;3.67;;;2.72;;
12687;SDS011;6408;59.388;17.798;2023-08-06T01:49:23;3.33;;;2.90;;
12687;SDS011;6408;59.388;17.798;2023-08-06T01:51:50;4.22;;;2.50;;
12687;SDS011;6408;59.388;17.798;2023-08-06T01:54:18;4.15;;;2.90;;
12687;SDS011;6408;59.388;17.798;2023-08-06T01:56:46;4.72;;;2.90;;
12687;SDS011;6408;59.388;17.798;2023-08-06T01:59:13;3.38;;;2.78;;
12687;SDS011;6408;59.388;17.798;2023-08-06T02:01:40;2.85;;;2.55;;
12687;SDS011;6408;59.388;17.798;2023-08-06T02:04:07;3.40;;;2.63;;
12687;SDS011;6408;59.388;17.798;2023-08-06T02:06:34;4.95;;;2.85;;
12687;SDS011;6408;59.388;17.798;2023-08-06T02:09:01;6.88;;;2.75;;
12687;SDS011;6408;59.388;17.798;2023-08-06T02:11:30;4.45;;;2.83;;
12687;SDS011;6408;59.388;17.798;2023-08-06T02:13:57;3.35;;;2.67;;
12687;SDS011;6408;59.388;17.798;2023-08-06T02:16:24;4.68;;;2.88;;
12687;SDS011;6408;59.388;17.798;2023-08-06T02:18:53;5.13;;;2.85;;
12687;SDS011;6408;59.388;17.798;2023-08-06T02:21:23;6.03;;;2.90;;
12687;SDS011;6408;59.388;17.798;2023-08-06T02:23:50;5.85;;;2.90;;
12687;SDS011;6408;59.388;17.798;2023-08-06T02:26:17;4.15;;;2.75;;
12687;SDS011;6408;59.388;17.798;2023-08-06T02:28:46;6.43;;;2.80;;
12687;SDS011;6408;59.388;17.798;2023-08-06T02:31:13;4.72;;;2.60;;
12687;SDS011;6408;59.388;17.798;2023-08-06T02:33:40;7.28;;;2.80;;
12687;SDS011;6408;59.388;17.798;2023-08-06T02:36:07;4.15;;;2.95;;
12687;SDS011;6408;59.388;17.798;2023-08-06T02:38:34;3.78;;;2.72;;
12687;SDS011;6408;59.388;17.798;2023-08-06T02:41:01;5.60;;;2.78;;
12687;SDS011;6408;59.388;17.798;2023-08-06T02:43:29;4.90;;;3.00;;
12687;SDS011;6408;59.388;17.798;2023-08-06T02:45:58;5.10;;;2.90;;
12687;SDS011;6408;59.388;17.798;2023-08-06T02:48:26;4.13;;;3.13;;
12687;SDS011;6408;59.388;17.798;2023-08-06T02:50:53;4.95;;;2.88;;
12687;SDS011;6408;59.388;17.798;2023-08-06T02:53:24;4.75;;;2.47;;
12687;SDS011;6408;59.388;17.798;2023-08-06T02:55:51;4.03;;;2.80;;
12687;SDS011;6408;59.388;17.798;2023-08-06T02:58:19;3.63;;;2.43;;
12687;SDS011;6408;59.388;17.798;2023-08-06T03:01:00;5.18;;;2.97;;
12687;SDS011;6408;59.388;17.798;2023-08-06T03:03:28;3.90;;;3.15;;
12687;SDS011;6408;59.388;17.798;2023-08-06T03:05:55;3.35;;;2.72;;
12687;SDS011;6408;59.388;17.798;2023-08-06T03:08:22;4.25;;;2.90;;
12687;SDS011;6408;59.388;17.798;2023-08-06T03:10:51;4.25;;;3.20;;
12687;SDS011;6408;59.388;17.798;2023-08-06T03:13:18;5.30;;;2.97;;
12687;SDS011;6408;59.388;17.798;2023-08-06T03:15:51;3.67;;;2.63;;
12687;SDS011;6408;59.388;17.798;2023-08-06T03:18:21;4.40;;;2.92;;
12687;SDS011;6408;59.388;17.798;2023-08-06T03:20:48;3.22;;;2.92;;
12687;SDS011;6408;59.388;17.798;2023-08-06T03:23:16;4.25;;;2.85;;
12687;SDS011;6408;59.388;17.798;2023-08-06T03:25:43;3.13;;;2.50;;
12687;SDS011;6408;59.388;17.798;2023-08-06T03:28:11;3.67;;;3.17;;
12687;SDS011;6408;59.388;17.798;2023-08-06T03:30:38;4.57;;;2.60;;
12687;SDS011;6408;59.388;17.798;2023-08-06T03:33:05;4.70;;;3.20;;
12687;SDS011;6408;59.388;17.798;2023-08-06T03:35:34;5.75;;;2.85;;
12687;SDS011;6408;59.388;17.798;2023-08-06T03:38:01;4.43;;;3.40;;
12687;SDS011;6408;59.388;17.798;2023-08-06T03:40:28;3.65;;;3.10;;
12687;SDS011;6408;59.388;17.798;2023-08-06T03:42:55;3.33;;;2.72;;
12687;SDS011;6408;59.388;17.798;2023-08-06T03:45:22;7.35;;;3.03;;
12687;SDS011;6408;59.388;17.798;2023-08-06T03:47:49;5.70;;;3.13;;
12687;SDS011;6408;59.388;17.798;2023-08-06T03:50:16;5.60;;;3.10;;
12687;SDS011;6408;59.388;17.798;2023-08-06T03:52:45;4.32;;;2.60;;
12687;SDS011;6408;59.388;17.798;2023-08-06T03:55:12;4.00;;;2.92;;
12687;SDS011;6408;59.388;17.798;2023-08-06T03:57:39;4.53;;;2.65;;
12687;SDS011;6408;59.388;17.798;2023-08-06T04:00:07;4.38;;;3.45;;
12687;SDS011;6408;59.388;17.798;2023-08-06T04:02:34;5.68;;;3.22;;
12687;SDS011;6408;59.388;17.798;2023-08-06T04:05:01;5.13;;;3.22;;
12687;SDS011;6408;59.388;17.798;2023-08-06T04:07:29;5.10;;;3.03;;
12687;SDS011;6408;59.388;17.798;2023-08-06T04:09:58;4.10;;;2.90;;
12687;SDS011;6408;59.388;17.798;2023-08-06T04:12:30;7.50;;;3.10;;
12687;SDS011;6408;59.388;17.798;2023-08-06T04:14:58;7.80;;;3.45;;
12687;SDS011;6408;59.388;17.798;2023-08-06T04:17:25;4.40;;;3.28;;
12687;SDS011;6408;59.388;17.798;2023-08-06T04:19:53;3.97;;;2.95;;
12687;SDS011;6408;59.388;17.798;2023-08-06T04:22:23;4.10;;;3.28;;
12687;SDS011;6408;59.388;17.798;2023-08-06T04:24:50;3.95;;;3.00;;
12687;SDS011;6408;59.388;17.798;2023-08-06T04:27:19;3.70;;;3.13;;
12687;SDS011;6408;59.388;17.798;2023-08-06T04:29:46;4.65;;;3.40;;
12687;SDS011;6408;59.388;17.798;2023-08-06T04:32:13;4.82;;;3.38;;
12687;SDS011;6408;59.388;17.798;2023-08-06T04:34:40;4.95;;;3.13;;
12687;SDS011;6408;59.388;17.798;2023-08-06T04:37:08;4.30;;;3.13;;
12687;SDS011;6408;59.388;17.798;2023-08-06T04:39:35;5.63;;;3.15;;
12687;SDS011;6408;59.388;17.798;2023-08-06T04:42:02;4.70;;;3.05;;
12687;SDS011;6408;59.388;17.798;2023-08-06T04:44:31;4.10;;;2.90;;
12687;SDS011;6408;59.388;17.798;2023-08-06T04:46:58;3.03;;;2.58;;
12687;SDS011;6408;59.388;17.798;2023-08-06T04:49:25;3.83;;;3.00;;
12687;SDS011;6408;59.388;17.798;2023-08-06T04:51:52;3.83;;;2.97;;
12687;SDS011;6408;59.388;17.798;2023-08-06T04:54:19;4.20;;;2.65;;
12687;SDS011;6408;59.388;17.798;2023-08-06T04:56:46;3.85;;;2.70;;
12687;SDS011;6408;59.388;17.798;2023-08-06T04:59:13;5.20;;;3.38;;
12687;SDS011;6408;59.388;17.798;2023-08-06T05:01:42;4.93;;;3.00;;
12687;SDS011;6408;59.388;17.798;2023-08-06T05:04:09;5.13;;;3.03;;
12687;SDS011;6408;59.388;17.798;2023-08-06T05:06:36;5.07;;;2.95;;
12687;SDS011;6408;59.388;17.798;2023-08-06T05:09:03;6.75;;;3.03;;
12687;SDS011;6408;59.388;17.798;2023-08-06T05:11:31;4.70;;;3.28;;
12687;SDS011;6408;59.388;17.798;2023-08-06T05:13:58;5.45;;;3.40;;
12687;SDS011;6408;59.388;17.798;2023-08-06T05:16:25;3.15;;;2.70;;
12687;SDS011;6408;59.388;17.798;2023-08-06T05:18:53;4.68;;;3.15;;
12687;SDS011;6408;59.388;17.798;2023-08-06T05:21:20;4.38;;;2.97;;
12687;SDS011;6408;59.388;17.798;2023-08-06T05:23:47;5.20;;;3.22;;
12687;SDS011;6408;59.388;17.798;2023-08-06T05:26:15;4.78;;;2.92;;
12687;SDS011;6408;59.388;17.798;2023-08-06T05:28:43;4.07;;;3.30;;
12687;SDS011;6408;59.388;17.798;2023-08-06T05:31:10;7.13;;;3.08;;
12687;SDS011;6408;59.388;17.798;2023-08-06T05:33:38;5.32;;;3.05;;
12687;SDS011;6408;59.388;17.798;2023-08-06T05:36:06;3.72;;;2.80;;
12687;SDS011;6408;59.388;17.798;2023-08-06T05:38:33;2.97;;;2.50;;
12687;SDS011;6408;59.388;17.798;2023-08-06T05:41:00;4.22;;;2.60;;
12687;SDS011;6408;59.388;17.798;2023-08-06T05:43:27;3.67;;;2.72;;
12687;SDS011;6408;59.388;17.798;2023-08-06T05:45:55;5.88;;;2.38;;
12687;SDS011;6408;59.388;17.798;2023-08-06T05:48:22;4.47;;;2.47;;
12687;SDS011;6408;59.388;17.798;2023-08-06T05:50:50;4.93;;;2.80;;
12687;SDS011;6408;59.388;17.798;2023-08-06T05:53:19;4.85;;;2.70;;
12687;SDS011;6408;59.388;17.798;2023-08-06T05:55:47;5.53;;;2.88;;
12687;SDS011;6408;59.388;17.798;2023-08-06T05:58:14;4.95;;;2.40;;
12687;SDS011;6408;59.388;17.798;2023-08-06T06:00:41;5.88;;;2.60;;
12687;SDS011;6408;59.388;17.798;2023-08-06T06:03:08;3.45;;;2.40;;
12687;SDS011;6408;59.388;17.798;2023-08-06T06:05:37;5.78;;;2.65;;
12687;SDS011;6408;59.388;17.798;2023-08-06T06:08:05;4.93;;;2.40;;
12687;SDS011;6408;59.388;17.798;2023-08-06T06:10:33;3.67;;;2.40;;
12687;SDS011;6408;59.388;17.798;2023-08-06T06:13:01;4.60;;;2.38;;
12687;SDS011;6408;59.388;17.798;2023-08-06T06:15:28;5.05;;;2.22;;
12687;SDS011;6408;59.388;17.798;2023-08-06T06:17:55;5.38;;;2.50;;
12687;SDS011;6408;59.388;17.798;2023-08-06T06:20:23;4.97;;;2.70;;
12687;SDS011;6408;59.388;17.798;2023-08-06T06:22:50;3.25;;;2.35;;
12687;SDS011;6408;59.388;17.798;2023-08-06T06:25:17;4.28;;;2.47;;
12687;SDS011;6408;59.388;17.798;2023-08-06T06:27:45;5.85;;;2.53;;
12687;SDS011;6408;59.388;17.798;2023-08-06T06:30:12;4.78;;;2.88;;
12687;SDS011;6408;59.388;17.798;2023-08-06T06:32:39;5.85;;;2.90;;
12687;SDS011;6408;59.388;17.798;2023-08-06T06:35:07;5.85;;;2.33;;
12687;SDS011;6408;59.388;17.798;2023-08-06T06:37:34;3.78;;;2.22;;
12687;SDS011;6408;59.388;17.798;2023-08-06T06:40:01;5.93;;;2.70;;
12687;SDS011;6408;59.388;17.798;2023-08-06T06:42:29;5.07;;;2.33;;
12687;SDS011;6408;59.388;17.798;2023-08-06T06:44:57;2.67;;;1.98;;
12687;SDS011;6408;59.388;17.798;2023-08-06T06:47:24;3.97;;;2.30;;
12687;SDS011;6408;59.388;17.798;2023-08-06T06:49:52;5.70;;;2.60;;
12687;SDS011;6408;59.388;17.798;2023-08-06T06:52:19;3.65;;;2.08;;
12687;SDS011;6408;59.388;17.798;2023-08-06T06:54:46;2.35;;;1.95;;
12687;SDS011;6408;59.388;17.798;2023-08-06T06:57:15;4.35;;;2.38;;
12687;SDS011;6408;59.388;17.798;2023-08-06T06:59:42;5.55;;;2.63;;
12687;SDS011;6408;59.388;17.798;2023-08-06T07:02:10;4.55;;;2.17;;
12687;SDS011;6408;59.388;17.798;2023-08-06T07:04:37;4.03;;;2.47;;
12687;SDS011;6408;59.388;17.798;2023-08-06T07:07:04;4.25;;;2.10;;
12687;SDS011;6408;59.388;17.798;2023-08-06T07:09:31;3.17;;;2.05;;
12687;SDS011;6408;59.388;17.798;2023-08-06T07:11:58;4.13;;;2.13;;
12687;SDS011;6408;59.388;17.798;2023-08-06T07:14:26;3.55;;;2.28;;
12687;SDS011;6408;59.388;17.798;2023-08-06T07:16:54;3.60;;;2.33;;
12687;SDS011;6408;59.388;17.798;2023-08-06T07:19:23;3.67;;;2.38;;
12687;SDS011;6408;59.388;17.798;2023-08-06T07:21:50;2.67;;;2.00;;
12687;SDS011;6408;59.388;17.798;2023-08-06T07:24:17;3.85;;;2.35;;
12687;SDS011;6408;59.388;17.798;2023-08-06T07:26:44;2.65;;;2.05;;
12687;SDS011;6408;59.388;17.798;2023-08-06T07:29:11;3.40;;;2.15;;
12687;SDS011;6408;59.388;17.798;2023-08-06T07:31:39;3.58;;;1.83;;
12687;SDS011;6408;59.388;17.798;2023-08-06T07:34:06;3.13;;;2.22;;
12687;SDS011;6408;59.388;17.798;2023-08-06T07:36:35;2.80;;;2.22;;
12687;SDS011;6408;59.388;17.798;2023-08-06T07:39:02;7.53;;;2.35;;
12687;SDS011;6408;59.388;17.798;2023-08-06T07:41:31;3.70;;;2.20;;
12687;SDS011;6408;59.388;17.798;2023-08-06T07:43:58;3.47;;;2.13;;
12687;SDS011;6408;59.388;17.798;2023-08-06T07:46:25;4.35;;;2.00;;
12687;SDS011;6408;59.388;17.798;2023-08-06T07:48:52;3.13;;;2.05;;
12687;SDS011;6408;59.388;17.798;2023-08-06T07:51:19;3.30;;;2.00;;
12687;SDS011;6408;59.388;17.798;2023-08-06T07:53:47;3.08;;;2.17;;
12687;SDS011;6408;59.388;17.798;2023-08-06T07:56:15;6.63;;;2.08;;
12687;SDS011;6408;59.388;17.798;2023-08-06T07:58:43;3.20;;;2.25;;
12687;SDS011;6408;59.388;17.798;2023-08-06T08:01:10;3.92;;;2.33;;
12687;SDS011;6408;59.388;17.798;2023-08-06T08:03:37;4.07;;;2.15;;
12687;SDS011;6408;59.388;17.798;2023-08-06T08:06:04;3.70;;;2.08;;
12687;SDS011;6408;59.388;17.798;2023-08-06T08:08:31;2.35;;;1.95;;
12687;SDS011;6408;59.388;17.798;2023-08-06T08:10:59;2.97;;;2.10;;
12687;SDS011;6408;59.388;17.798;2023-08-06T08:13:27;3.28;;;2.30;;
12687;SDS011;6408;59.388;17.798;2023-08-06T08:15:56;4.78;;;2.42;;
12687;SDS011;6408;59.388;17.798;2023-08-06T08:18:24;3.50;;;2.10;;
12687;SDS011;6408;59.388;17.798;2023-08-06T08:20:51;2.60;;;1.95;;
12687;SDS011;6408;59.388;17.798;2023-08-06T08:23:18;4.60;;;2.00;;
12687;SDS011;6408;59.388;17.798;2023-08-06T08:25:45;8.18;;;2.10;;
12687;SDS011;6408;59.388;17.798;2023-08-06T08:28:14;2.50;;;1.90;;
12687;SDS011;6408;59.388;17.798;2023-08-06T08:30:41;6.03;;;2.13;;
12687;SDS011;6408;59.388;17.798;2023-08-06T08:33:08;4.57;;;1.80;;
12687;SDS011;6408;59.388;17.798;2023-08-06T08:35:36;3.22;;;2.00;;
12687;SDS011;6408;59.388;17.798;2023-08-06T08:38:03;3.33;;;1.88;;
12687;SDS011;6408;59.388;17.798;2023-08-06T08:40:32;4.68;;;2.00;;
12687;SDS011;6408;59.388;17.798;2023-08-06T08:43:02;3.13;;;2.20;;
12687;SDS011;6408;59.388;17.798;2023-08-06T08:45:31;3.72;;;2.20;;
12687;SDS011;6408;59.388;17.798;2023-08-06T08:48:05;5.93;;;1.85;;
12687;SDS011;6408;59.388;17.798;2023-08-06T08:50:36;8.50;;;1.90;;
12687;SDS011;6408;59.388;17.798;2023-08-06T08:53:03;4.60;;;2.20;;
12687;SDS011;6408;59.388;17.798;2023-08-06T08:55:31;3.83;;;2.13;;
12687;SDS011;6408;59.388;17.798;2023-08-06T08:57:59;2.10;;;1.83;;
12687;SDS011;6408;59.388;17.798;2023-08-06T09:00:26;4.43;;;2.70;;
12687;SDS011;6408;59.388;17.798;2023-08-06T09:02:56;4.32;;;2.63;;
12687;SDS011;6408;59.388;17.798;2023-08-06T09:05:25;3.28;;;1.77;;
12687;SDS011;6408;59.388;17.798;2023-08-06T09:07:56;4.65;;;2.15;;
12687;SDS011;6408;59.388;17.798;2023-08-06T09:10:29;4.85;;;2.10;;
12687;SDS011;6408;59.388;17.798;2023-08-06T09:12:57;5.13;;;2.30;;
12687;SDS011;6408;59.388;17.798;2023-08-06T09:15:26;3.85;;;2.20;;
12687;SDS011;6408;59.388;17.798;2023-08-06T09:17:53;5.03;;;2.10;;
12687;SDS011;6408;59.388;17.798;2023-08-06T09:20:22;4.35;;;2.08;;
12687;SDS011;6408;59.388;17.798;2023-08-06T09:22:52;4.20;;;1.95;;
12687;SDS011;6408;59.388;17.798;2023-08-06T09:25:20;4.38;;;2.10;;
12687;SDS011;6408;59.388;17.798;2023-08-06T09:27:49;3.65;;;1.70;;
12687;SDS011;6408;59.388;17.798;2023-08-06T09:30:28;7.10;;;2.42;;
12687;SDS011;6408;59.388;17.798;2023-08-06T09:32:58;5.10;;;2.47;;
12687;SDS011;6408;59.388;17.798;2023-08-06T09:35:25;2.58;;;1.95;;
12687;SDS011;6408;59.388;17.798;2023-08-06T09:37:55;5.75;;;2.00;;
12687;SDS011;6408;59.388;17.798;2023-08-06T09:40:25;3.13;;;2.13;;
12687;SDS011;6408;59.388;17.798;2023-08-06T09:42:53;3.92;;;2.30;;
12687;SDS011;6408;59.388;17.798;2023-08-06T09:45:20;4.30;;;2.30;;
12687;SDS011;6408;59.388;17.798;2023-08-06T09:47:48;2.15;;;1.70;;
12687;SDS011;6408;59.388;17.798;2023-08-06T09:50:18;3.80;;;2.10;;
12687;SDS011;6408;59.388;17.798;2023-08-06T09:52:46;4.13;;;2.20;;
12687;SDS011;6408;59.388;17.798;2023-08-06T09:55:14;4.95;;;2.50;;
12687;SDS011;6408;59.388;17.798;2023-08-06T09:57:41;3.53;;;2.10;;
12687;SDS011;6408;59.388;17.798;2023-08-06T10:00:09;4.80;;;2.67;;
12687;SDS011;6408;59.388;17.798;2023-08-06T10:02:38;4.85;;;2.03;;
12687;SDS011;6408;59.388;17.798;2023-08-06T10:05:05;4.20;;;2.33;;
12687;SDS011;6408;59.388;17.798;2023-08-06T10:07:35;5.18;;;2.03;;
12687;SDS011;6408;59.388;17.798;2023-08-06T10:10:04;3.13;;;2.22;;
12687;SDS011;6408;59.388;17.798;2023-08-06T10:12:32;3.80;;;2.22;;
12687;SDS011;6408;59.388;17.798;2023-08-06T10:15:03;4.78;;;2.20;;
12687;SDS011;6408;59.388;17.798;2023-08-06T10:17:33;3.15;;;2.30;;
12687;SDS011;6408;59.388;17.798;2023-08-06T10:20:02;6.80;;;2.80;;
12687;SDS011;6408;59.388;17.798;2023-08-06T10:22:32;3.45;;;2.53;;
12687;SDS011;6408;59.388;17.798;2023-08-06T10:25:01;3.55;;;2.38;;
12687;SDS011;6408;59.388;17.798;2023-08-06T10:27:31;3.17;;;2.25;;
12687;SDS011;6408;59.388;17.798;2023-08-06T10:32:52;5.70;;;2.45;;
12687;SDS011;6408;59.388;17.798;2023-08-06T10:35:28;4.47;;;2.30;;
12687;SDS011;6408;59.388;17.798;2023-08-06T10:37:59;2.75;;;2.13;;
12687;SDS011;6408;59.388;17.798;2023-08-06T10:40:32;6.03;;;2.78;;
12687;SDS011;6408;59.388;17.798;2023-08-06T10:43:00;4.53;;;2.10;;
12687;SDS011;6408;59.388;17.798;2023-08-06T10:45:27;2.75;;;2.40;;
12687;SDS011;6408;59.388;17.798;2023-08-06T10:47:55;2.75;;;2.50;;
12687;SDS011;6408;59.388;17.798;2023-08-06T10:50:24;3.53;;;2.50;;
12687;SDS011;6408;59.388;17.798;2023-08-06T10:52:51;7.07;;;2.50;;
12687;SDS011;6408;59.388;17.798;2023-08-06T10:55:22;6.30;;;2.40;;
12687;SDS011;6408;59.388;17.798;2023-08-06T10:57:52;5.75;;;2.45;;
12687;SDS011;6408;59.388;17.798;2023-08-06T11:00:20;5.47;;;2.47;;
12687;SDS011;6408;59.388;17.798;2023-08-06T11:02:48;4.97;;;2.38;;
12687;SDS011;6408;59.388;17.798;2023-08-06T11:05:17;4.53;;;2.47;;
12687;SDS011;6408;59.388;17.798;2023-08-06T11:07:44;5.35;;;2.38;;
12687;SDS011;6408;59.388;17.798;2023-08-06T11:10:13;4.05;;;2.28;;
12687;SDS011;6408;59.388;17.798;2023-08-06T11:12:40;4.07;;;2.25;;
12687;SDS011;6408;59.388;17.798;2023-08-06T11:15:10;4.55;;;2.75;;
12687;SDS011;6408;59.388;17.798;2023-08-06T11:17:39;4.68;;;2.78;;
12687;SDS011;6408;59.388;17.798;2023-08-06T11:20:09;4.95;;;2.70;;
12687;SDS011;6408;59.388;17.798;2023-08-06T11:22:37;7.22;;;2.72;;
12687;SDS011;6408;59.388;17.798;2023-08-06T11:25:05;5.20;;;2.70;;
12687;SDS011;6408;59.388;17.798;2023-08-06T11:27:33;4.57;;;2.78;;
12687;SDS011;6408;59.388;17.798;2023-08-06T11:30:00;3.55;;;2.80;;
12687;SDS011;6408;59.388;17.798;2023-08-06T11:32:30;6.05;;;2.38;;
12687;SDS011;6408;59.388;17.798;2023-08-06T11:35:08;3.25;;;2.30;;
12687;SDS011;6408;59.388;17.798;2023-08-06T11:37:37;4.47;;;2.90;;
12687;SDS011;6408;59.388;17.798;2023-08-06T11:40:09;5.22;;;2.92;;
12687;SDS011;6408;59.388;17.798;2023-08-06T11:42:37;5.38;;;2.80;;
12687;SDS011;6408;59.388;17.798;2023-08-06T11:45:04;4.00;;;2.83;;
12687;SDS011;6408;59.388;17.798;2023-08-06T11:47:36;3.53;;;2.72;;
12687;SDS011;6408;59.388;17.798;2023-08-06T11:50:04;4.43;;;2.53;;
12687;SDS011;6408;59.388;17.798;2023-08-06T11:52:33;6.05;;;2.80;;
12687;SDS011;6408;59.388;17.798;2023-08-06T11:55:00;3.47;;;2.88;;
12687;SDS011;6408;59.388;17.798;2023-08-06T11:57:31;5.65;;;3.10;;
12687;SDS011;6408;59.388;17.798;2023-08-06T12:00:01;5.78;;;2.97;;
12687;SDS011;6408;59.388;17.798;2023-08-06T12:02:31;4.45;;;2.67;;
12687;SDS011;6408;59.388;17.798;2023-08-06T12:05:04;6.13;;;3.08;;
12687;SDS011;6408;59.388;17.798;2023-08-06T12:07:37;5.72;;;3.10;;
12687;SDS011;6408;59.388;17.798;2023-08-06T12:10:05;6.25;;;3.33;;
12687;SDS011;6408;59.388;17.798;2023-08-06T12:12:32;6.43;;;3.28;;
12687;SDS011;6408;59.388;17.798;2023-08-06T12:15:00;4.53;;;2.92;;
12687;SDS011;6408;59.388;17.798;2023-08-06T12:17:27;5.10;;;3.10;;
12687;SDS011;6408;59.388;17.798;2023-08-06T12:19:54;4.30;;;2.92;;
12687;SDS011;6408;59.388;17.798;2023-08-06T12:22:22;8.68;;;3.40;;
12687;SDS011;6408;59.388;17.798;2023-08-06T12:24:49;6.22;;;2.90;;
12687;SDS011;6408;59.388;17.798;2023-08-06T12:27:16;6.40;;;2.90;;
12687;SDS011;6408;59.388;17.798;2023-08-06T12:29:44;6.32;;;3.38;;
12687;SDS011;6408;59.388;17.798;2023-08-06T12:32:12;7.20;;;3.05;;
12687;SDS011;6408;59.388;17.798;2023-08-06T12:34:40;7.07;;;3.78;;
12687;SDS011;6408;59.388;17.798;2023-08-06T12:37:08;5.38;;;3.40;;
12687;SDS011;6408;59.388;17.798;2023-08-06T12:39:37;5.63;;;3.40;;
12687;SDS011;6408;59.388;17.798;2023-08-06T12:42:05;5.25;;;3.42;;
12687;SDS011;6408;59.388;17.798;2023-08-06T12:44:32;5.28;;;3.55;;
12687;SDS011;6408;59.388;17.798;2023-08-06T12:46:59;7.00;;;3.55;;
12687;SDS011;6408;59.388;17.798;2023-08-06T12:49:26;8.18;;;4.15;;
12687;SDS011;6408;59.388;17.798;2023-08-06T12:51:54;7.30;;;4.18;;
12687;SDS011;6408;59.388;17.798;2023-08-06T12:54:21;7.55;;;3.70;;
12687;SDS011;6408;59.388;17.798;2023-08-06T12:56:50;5.80;;;3.85;;
12687;SDS011;6408;59.388;17.798;2023-08-06T12:59:18;4.85;;;3.97;;
12687;SDS011;6408;59.388;17.798;2023-08-06T13:01:45;5.55;;;3.63;;
12687;SDS011;6408;59.388;17.798;2023-08-06T13:04:13;5.40;;;3.72;;
12687;SDS011;6408;59.388;17.798;2023-08-06T13:06:40;7.38;;;3.38;;
12687;SDS011;6408;59.388;17.798;2023-08-06T13:09:08;5.78;;;3.83;;
12687;SDS011;6408;59.388;17.798;2023-08-06T13:11:36;6.43;;;3.50;;
12687;SDS011;6408;59.388;17.798;2023-08-06T13:14:07;5.13;;;3.20;;
12687;SDS011;6408;59.388;17.798;2023-08-06T13:16:36;5.72;;;4.00;;
12687;SDS011;6408;59.388;17.798;2023-08-06T13:19:04;5.32;;;3.63;;
12687;SDS011;6408;59.388;17.798;2023-08-06T13:21:33;7.43;;;3.53;;
12687;SDS011;6408;59.388;17.798;2023-08-06T13:24:01;5.50;;;3.40;;
12687;SDS011;6408;59.388;17.798;2023-08-06T13:26:28;5.15;;;3.97;;
12687;SDS011;6408;59.388;17.798;2023-08-06T13:28:56;4.28;;;3.88;;
12687;SDS011;6408;59.388;17.798;2023-08-06T13:31:25;6.00;;;4.00;;
12687;SDS011;6408;59.388;17.798;2023-08-06T13:33:53;5.90;;;3.47;;
12687;SDS011;6408;59.388;17.798;2023-08-06T13:36:23;7.30;;;4.30;;
12687;SDS011;6408;59.388;17.798;2023-08-06T13:38:50;7.00;;;4.43;;
12687;SDS011;6408;59.388;17.798;2023-08-06T13:41:18;6.95;;;4.70;;
12687;SDS011;6408;59.388;17.798;2023-08-06T13:43:45;6.93;;;4.22;;
12687;SDS011;6408;59.388;17.798;2023-08-06T13:46:12;6.32;;;4.18;;
12687;SDS011;6408;59.388;17.798;2023-08-06T13:48:43;6.68;;;3.80;;
12687;SDS011;6408;59.388;17.798;2023-08-06T13:51:11;6.75;;;3.90;;
12687;SDS011;6408;59.388;17.798;2023-08-06T13:53:39;5.93;;;4.30;;
12687;SDS011;6408;59.388;17.798;2023-08-06T13:56:09;4.95;;;4.20;;
12687;SDS011;6408;59.388;17.798;2023-08-06T13:58:36;7.18;;;4.32;;
12687;SDS011;6408;59.388;17.798;2023-08-06T14:01:03;6.20;;;4.45;;
12687;SDS011;6408;59.388;17.798;2023-08-06T14:03:30;4.85;;;4.35;;
12687;SDS011;6408;59.388;17.798;2023-08-06T14:05:59;5.63;;;4.28;;
12687;SDS011;6408;59.388;17.798;2023-08-06T14:08:26;6.43;;;4.30;;
12687;SDS011;6408;59.388;17.798;2023-08-06T14:10:54;5.00;;;4.35;;
12687;SDS011;6408;59.388;17.798;2023-08-06T14:13:21;5.28;;;4.43;;
12687;SDS011;6408;59.388;17.798;2023-08-06T14:15:48;6.22;;;4.40;;
12687;SDS011;6408;59.388;17.798;2023-08-06T14:18:15;4.80;;;4.35;;
12687;SDS011;6408;59.388;17.798;2023-08-06T14:20:43;4.78;;;4.22;;
12687;SDS011;6408;59.388;17.798;2023-08-06T14:23:12;4.00;;;3.60;;
12687;SDS011;6408;59.388;17.798;2023-08-06T14:25:39;7.22;;;3.92;;
12687;SDS011;6408;59.388;17.798;2023-08-06T14:28:05;4.40;;;3.72;;
12687;SDS011;6408;59.388;17.798;2023-08-06T14:30:33;5.90;;;4.28;;
12687;SDS011;6408;59.388;17.798;2023-08-06T14:33:00;7.05;;;4.38;;
12687;SDS011;6408;59.388;17.798;2023-08-06T14:35:28;4.88;;;4.30;;
12687;SDS011;6408;59.388;17.798;2023-08-06T14:37:55;5.35;;;3.75;;
12687;SDS011;6408;59.388;17.798;2023-08-06T14:40:23;5.07;;;3.90;;
12687;SDS011;6408;59.388;17.798;2023-08-06T14:42:53;5.72;;;4.15;;
12687;SDS011;6408;59.388;17.798;2023-08-06T14:45:20;9.90;;;3.75;;
12687;SDS011;6408;59.388;17.798;2023-08-06T14:47:47;5.43;;;4.10;;
12687;SDS011;6408;59.388;17.798;2023-08-06T14:50:14;5.57;;;3.95;;
12687;SDS011;6408;59.388;17.798;2023-08-06T14:52:41;4.30;;;3.90;;
12687;SDS011;6408;59.388;17.798;2023-08-06T14:55:08;5.70;;;4.00;;